sensor_id;sensor_type;location;lat;lon;timestamp;P1;durP1;ratioP1;P2;durP2;ratioP2
57842;SDS011;43673;51.058;3.734;2023-04-06T00:01:55;26.98;;;16.80;;
57842;SDS011;43673;51.058;3.734;2023-04-06T00:04:21;29.65;;;16.30;;
57842;SDS011;43673;51.058;3.734;2023-04-06T00:06:47;30.63;;;18.63;;
57842;SDS011;43673;51.058;3.734;2023-04-06T00:09:13;28.70;;;17.33;;
57842;SDS011;43673;51.058;3.734;2023-04-06T00:11:38;27.63;;;16.50;;
57842;SDS011;43673;51.058;3.734;2023-04-06T00:14:04;30.58;;;19.42;;
57842;SDS011;43673;51.058;3.734;2023-04-06T00:16:30;33.05;;;17.65;;
57842;SDS011;43673;51.058;3.734;2023-04-06T00:18:56;27.55;;;18.00;;
57842;SDS011;43673;51.058;3.734;2023-04-06T00:21:22;27.92;;;17.02;;
57842;SDS011;43673;51.058;3.734;2023-04-06T00:23:47;29.02;;;17.30;;
57842;SDS011;43673;51.058;3.734;2023-04-06T00:26:13;33.95;;;19.50;;
57842;SDS011;43673;51.058;3.734;2023-04-06T00:28:39;33.83;;;18.60;;
57842;SDS011;43673;51.058;3.734;2023-04-06T00:31:05;33.00;;;20.42;;
57842;SDS011;43673;51.058;3.734;2023-04-06T00:33:30;36.22;;;19.30;;
57842;SDS011;43673;51.058;3.734;2023-04-06T00:35:57;32.90;;;18.33;;
57842;SDS011;43673;51.058;3.734;2023-04-06T00:38:22;31.10;;;18.73;;
57842;SDS011;43673;51.058;3.734;2023-04-06T00:40:48;33.28;;;17.90;;
57842;SDS011;43673;51.058;3.734;2023-04-06T00:43:14;36.55;;;19.23;;
57842;SDS011;43673;51.058;3.734;2023-04-06T00:45:41;30.90;;;18.77;;
57842;SDS011;43673;51.058;3.734;2023-04-06T00:48:07;28.30;;;19.48;;
57842;SDS011;43673;51.058;3.734;2023-04-06T00:50:34;32.90;;;19.70;;
57842;SDS011;43673;51.058;3.734;2023-04-06T00:53:00;30.65;;;19.02;;
57842;SDS011;43673;51.058;3.734;2023-04-06T00:55:27;35.05;;;20.27;;
57842;SDS011;43673;51.058;3.734;2023-04-06T00:57:53;32.65;;;19.27;;
57842;SDS011;43673;51.058;3.734;2023-04-06T01:00:20;31.75;;;19.30;;
57842;SDS011;43673;51.058;3.734;2023-04-06T01:02:45;32.53;;;18.90;;
57842;SDS011;43673;51.058;3.734;2023-04-06T01:05:12;32.80;;;20.27;;
57842;SDS011;43673;51.058;3.734;2023-04-06T01:07:38;32.65;;;20.27;;
57842;SDS011;43673;51.058;3.734;2023-04-06T01:10:04;31.85;;;20.75;;
57842;SDS011;43673;51.058;3.734;2023-04-06T01:12:30;34.15;;;21.45;;
57842;SDS011;43673;51.058;3.734;2023-04-06T01:14:56;36.80;;;21.15;;
57842;SDS011;43673;51.058;3.734;2023-04-06T01:17:22;35.85;;;21.58;;
57842;SDS011;43673;51.058;3.734;2023-04-06T01:19:48;36.55;;;21.30;;
57842;SDS011;43673;51.058;3.734;2023-04-06T01:22:16;34.58;;;21.67;;
57842;SDS011;43673;51.058;3.734;2023-04-06T01:24:42;41.97;;;22.98;;
57842;SDS011;43673;51.058;3.734;2023-04-06T01:27:08;35.08;;;21.08;;
57842;SDS011;43673;51.058;3.734;2023-04-06T01:29:34;40.92;;;24.25;;
57842;SDS011;43673;51.058;3.734;2023-04-06T01:32:00;38.05;;;23.20;;
57842;SDS011;43673;51.058;3.734;2023-04-06T01:34:26;38.80;;;23.48;;
57842;SDS011;43673;51.058;3.734;2023-04-06T01:36:52;41.13;;;23.63;;
57842;SDS011;43673;51.058;3.734;2023-04-06T01:39:18;39.50;;;22.85;;
57842;SDS011;43673;51.058;3.734;2023-04-06T01:41:45;41.00;;;23.98;;
57842;SDS011;43673;51.058;3.734;2023-04-06T01:44:12;43.28;;;25.83;;
57842;SDS011;43673;51.058;3.734;2023-04-06T01:46:41;43.95;;;25.05;;
57842;SDS011;43673;51.058;3.734;2023-04-06T01:49:07;40.85;;;25.02;;
57842;SDS011;43673;51.058;3.734;2023-04-06T01:51:32;42.20;;;23.42;;
57842;SDS011;43673;51.058;3.734;2023-04-06T01:53:58;45.08;;;25.58;;
57842;SDS011;43673;51.058;3.734;2023-04-06T01:56:24;42.60;;;24.88;;
57842;SDS011;43673;51.058;3.734;2023-04-06T01:58:50;42.28;;;24.42;;
57842;SDS011;43673;51.058;3.734;2023-04-06T02:01:16;43.65;;;25.63;;
57842;SDS011;43673;51.058;3.734;2023-04-06T02:03:42;46.05;;;27.42;;
57842;SDS011;43673;51.058;3.734;2023-04-06T02:06:08;46.97;;;25.10;;
57842;SDS011;43673;51.058;3.734;2023-04-06T02:08:33;42.00;;;24.88;;
57842;SDS011;43673;51.058;3.734;2023-04-06T02:10:59;38.33;;;23.65;;
57842;SDS011;43673;51.058;3.734;2023-04-06T02:13:25;45.63;;;25.23;;
57842;SDS011;43673;51.058;3.734;2023-04-06T02:15:51;41.65;;;26.27;;
57842;SDS011;43673;51.058;3.734;2023-04-06T02:18:17;47.83;;;27.15;;
57842;SDS011;43673;51.058;3.734;2023-04-06T02:20:43;44.75;;;26.67;;
57842;SDS011;43673;51.058;3.734;2023-04-06T02:23:09;45.88;;;27.58;;
57842;SDS011;43673;51.058;3.734;2023-04-06T02:25:36;49.50;;;29.10;;
57842;SDS011;43673;51.058;3.734;2023-04-06T02:28:01;46.65;;;26.60;;
57842;SDS011;43673;51.058;3.734;2023-04-06T02:30:27;44.50;;;28.67;;
57842;SDS011;43673;51.058;3.734;2023-04-06T02:32:54;51.05;;;30.10;;
57842;SDS011;43673;51.058;3.734;2023-04-06T02:35:20;53.40;;;30.65;;
57842;SDS011;43673;51.058;3.734;2023-04-06T02:37:46;57.33;;;33.00;;
57842;SDS011;43673;51.058;3.734;2023-04-06T02:40:13;50.10;;;29.33;;
57842;SDS011;43673;51.058;3.734;2023-04-06T02:42:39;53.67;;;31.00;;
57842;SDS011;43673;51.058;3.734;2023-04-06T02:45:05;48.42;;;27.23;;
57842;SDS011;43673;51.058;3.734;2023-04-06T02:47:32;51.83;;;29.45;;
57842;SDS011;43673;51.058;3.734;2023-04-06T02:49:58;46.28;;;28.23;;
57842;SDS011;43673;51.058;3.734;2023-04-06T02:52:24;48.33;;;27.27;;
57842;SDS011;43673;51.058;3.734;2023-04-06T02:54:50;48.58;;;29.95;;
57842;SDS011;43673;51.058;3.734;2023-04-06T02:57:16;50.58;;;30.38;;
57842;SDS011;43673;51.058;3.734;2023-04-06T02:59:42;46.83;;;29.05;;
57842;SDS011;43673;51.058;3.734;2023-04-06T03:02:07;47.28;;;30.30;;
57842;SDS011;43673;51.058;3.734;2023-04-06T03:04:33;51.38;;;29.25;;
57842;SDS011;43673;51.058;3.734;2023-04-06T03:06:59;48.35;;;29.58;;
57842;SDS011;43673;51.058;3.734;2023-04-06T03:09:25;50.28;;;29.98;;
57842;SDS011;43673;51.058;3.734;2023-04-06T03:11:52;51.08;;;29.58;;
57842;SDS011;43673;51.058;3.734;2023-04-06T03:14:18;56.10;;;31.17;;
57842;SDS011;43673;51.058;3.734;2023-04-06T03:16:47;51.47;;;31.83;;
57842;SDS011;43673;51.058;3.734;2023-04-06T03:19:13;53.83;;;32.05;;
57842;SDS011;43673;51.058;3.734;2023-04-06T03:21:39;55.25;;;32.67;;
57842;SDS011;43673;51.058;3.734;2023-04-06T03:24:05;58.20;;;33.97;;
57842;SDS011;43673;51.058;3.734;2023-04-06T03:26:31;53.92;;;33.35;;
57842;SDS011;43673;51.058;3.734;2023-04-06T03:28:56;54.20;;;30.63;;
57842;SDS011;43673;51.058;3.734;2023-04-06T03:31:22;56.38;;;32.97;;
57842;SDS011;43673;51.058;3.734;2023-04-06T03:33:48;54.88;;;33.72;;
57842;SDS011;43673;51.058;3.734;2023-04-06T03:36:14;56.45;;;32.22;;
57842;SDS011;43673;51.058;3.734;2023-04-06T03:38:39;52.70;;;30.98;;
57842;SDS011;43673;51.058;3.734;2023-04-06T03:41:05;49.92;;;30.45;;
57842;SDS011;43673;51.058;3.734;2023-04-06T03:43:31;54.10;;;29.98;;
57842;SDS011;43673;51.058;3.734;2023-04-06T03:45:57;52.53;;;33.03;;
57842;SDS011;43673;51.058;3.734;2023-04-06T03:48:22;56.15;;;31.27;;
57842;SDS011;43673;51.058;3.734;2023-04-06T03:50:48;50.25;;;30.17;;
57842;SDS011;43673;51.058;3.734;2023-04-06T03:53:14;52.72;;;29.85;;
57842;SDS011;43673;51.058;3.734;2023-04-06T03:55:40;54.47;;;31.65;;
57842;SDS011;43673;51.058;3.734;2023-04-06T03:58:06;53.45;;;30.58;;
57842;SDS011;43673;51.058;3.734;2023-04-06T04:00:31;53.72;;;32.80;;
57842;SDS011;43673;51.058;3.734;2023-04-06T04:02:58;54.85;;;30.15;;
57842;SDS011;43673;51.058;3.734;2023-04-06T04:05:24;53.00;;;31.45;;
57842;SDS011;43673;51.058;3.734;2023-04-06T04:07:52;52.88;;;30.88;;
57842;SDS011;43673;51.058;3.734;2023-04-06T04:10:18;47.63;;;29.50;;
57842;SDS011;43673;51.058;3.734;2023-04-06T04:12:44;54.70;;;30.38;;
57842;SDS011;43673;51.058;3.734;2023-04-06T04:15:10;55.95;;;32.45;;
57842;SDS011;43673;51.058;3.734;2023-04-06T04:17:35;47.60;;;30.50;;
57842;SDS011;43673;51.058;3.734;2023-04-06T04:20:01;49.13;;;29.70;;
57842;SDS011;43673;51.058;3.734;2023-04-06T04:22:27;49.00;;;30.25;;
57842;SDS011;43673;51.058;3.734;2023-04-06T04:24:53;47.95;;;29.95;;
57842;SDS011;43673;51.058;3.734;2023-04-06T04:27:21;51.20;;;31.58;;
57842;SDS011;43673;51.058;3.734;2023-04-06T04:29:47;51.45;;;29.92;;
57842;SDS011;43673;51.058;3.734;2023-04-06T04:32:13;54.08;;;31.15;;
57842;SDS011;43673;51.058;3.734;2023-04-06T04:34:39;47.25;;;28.33;;
57842;SDS011;43673;51.058;3.734;2023-04-06T04:37:05;45.08;;;27.95;;
57842;SDS011;43673;51.058;3.734;2023-04-06T04:39:31;47.75;;;30.10;;
57842;SDS011;43673;51.058;3.734;2023-04-06T04:41:57;54.25;;;29.15;;
57842;SDS011;43673;51.058;3.734;2023-04-06T04:44:23;45.83;;;28.55;;
57842;SDS011;43673;51.058;3.734;2023-04-06T04:46:49;49.97;;;29.33;;
57842;SDS011;43673;51.058;3.734;2023-04-06T04:49:15;47.72;;;29.60;;
57842;SDS011;43673;51.058;3.734;2023-04-06T04:51:41;45.00;;;29.30;;
57842;SDS011;43673;51.058;3.734;2023-04-06T04:54:06;51.58;;;28.95;;
57842;SDS011;43673;51.058;3.734;2023-04-06T04:56:32;44.80;;;27.60;;
57842;SDS011;43673;51.058;3.734;2023-04-06T04:58:58;46.90;;;27.52;;
57842;SDS011;43673;51.058;3.734;2023-04-06T05:01:24;42.95;;;27.95;;
57842;SDS011;43673;51.058;3.734;2023-04-06T05:03:50;48.72;;;28.65;;
57842;SDS011;43673;51.058;3.734;2023-04-06T05:06:15;48.38;;;27.48;;
57842;SDS011;43673;51.058;3.734;2023-04-06T05:08:42;47.65;;;29.02;;
57842;SDS011;43673;51.058;3.734;2023-04-06T05:11:08;43.50;;;26.52;;
57842;SDS011;43673;51.058;3.734;2023-04-06T05:13:34;44.38;;;26.90;;
57842;SDS011;43673;51.058;3.734;2023-04-06T05:16:00;40.88;;;26.85;;
57842;SDS011;43673;51.058;3.734;2023-04-06T05:18:26;41.58;;;26.25;;
57842;SDS011;43673;51.058;3.734;2023-04-06T05:20:52;43.47;;;26.23;;
57842;SDS011;43673;51.058;3.734;2023-04-06T05:25:53;38.67;;;25.58;;
57842;SDS011;43673;51.058;3.734;2023-04-06T05:28:19;48.95;;;27.50;;
57842;SDS011;43673;51.058;3.734;2023-04-06T05:30:45;41.33;;;26.63;;
57842;SDS011;43673;51.058;3.734;2023-04-06T05:33:13;44.53;;;27.65;;
57842;SDS011;43673;51.058;3.734;2023-04-06T05:35:40;43.58;;;26.55;;
57842;SDS011;43673;51.058;3.734;2023-04-06T05:38:07;39.40;;;24.92;;
57842;SDS011;43673;51.058;3.734;2023-04-06T05:40:35;47.40;;;26.83;;
57842;SDS011;43673;51.058;3.734;2023-04-06T05:43:02;48.83;;;28.05;;
57842;SDS011;43673;51.058;3.734;2023-04-06T05:45:28;38.10;;;25.17;;
57842;SDS011;43673;51.058;3.734;2023-04-06T05:47:54;43.60;;;26.98;;
57842;SDS011;43673;51.058;3.734;2023-04-06T05:50:20;40.47;;;25.73;;
57842;SDS011;43673;51.058;3.734;2023-04-06T05:52:47;41.10;;;25.08;;
57842;SDS011;43673;51.058;3.734;2023-04-06T05:55:13;41.10;;;25.17;;
57842;SDS011;43673;51.058;3.734;2023-04-06T05:57:39;42.75;;;26.30;;
57842;SDS011;43673;51.058;3.734;2023-04-06T06:00:05;47.47;;;26.40;;
57842;SDS011;43673;51.058;3.734;2023-04-06T06:02:34;43.90;;;25.33;;
57842;SDS011;43673;51.058;3.734;2023-04-06T06:04:59;43.67;;;24.67;;
57842;SDS011;43673;51.058;3.734;2023-04-06T06:07:34;37.42;;;23.80;;
57842;SDS011;43673;51.058;3.734;2023-04-06T06:10:04;39.08;;;22.50;;
57842;SDS011;43673;51.058;3.734;2023-04-06T06:12:31;37.70;;;23.70;;
57842;SDS011;43673;51.058;3.734;2023-04-06T06:17:31;34.35;;;21.60;;
57842;SDS011;43673;51.058;3.734;2023-04-06T06:19:57;33.47;;;21.17;;
57842;SDS011;43673;51.058;3.734;2023-04-06T06:22:23;36.08;;;21.05;;
57842;SDS011;43673;51.058;3.734;2023-04-06T06:24:49;34.13;;;19.40;;
57842;SDS011;43673;51.058;3.734;2023-04-06T06:27:21;38.03;;;19.38;;
57842;SDS011;43673;51.058;3.734;2023-04-06T06:29:58;33.13;;;18.27;;
57842;SDS011;43673;51.058;3.734;2023-04-06T06:32:27;32.75;;;17.33;;
57842;SDS011;43673;51.058;3.734;2023-04-06T06:34:53;27.38;;;16.98;;
57842;SDS011;43673;51.058;3.734;2023-04-06T06:37:19;25.75;;;16.02;;
57842;SDS011;43673;51.058;3.734;2023-04-06T06:39:45;26.65;;;14.82;;
57842;SDS011;43673;51.058;3.734;2023-04-06T06:42:11;24.05;;;15.40;;
57842;SDS011;43673;51.058;3.734;2023-04-06T06:44:41;29.33;;;17.60;;
57842;SDS011;43673;51.058;3.734;2023-04-06T06:47:10;24.05;;;15.32;;
57842;SDS011;43673;51.058;3.734;2023-04-06T06:49:38;25.83;;;16.10;;
57842;SDS011;43673;51.058;3.734;2023-04-06T06:52:04;22.48;;;14.07;;
57842;SDS011;43673;51.058;3.734;2023-04-06T06:54:35;23.47;;;14.47;;
57842;SDS011;43673;51.058;3.734;2023-04-06T06:57:01;24.63;;;15.65;;
57842;SDS011;43673;51.058;3.734;2023-04-06T06:59:28;24.83;;;14.13;;
57842;SDS011;43673;51.058;3.734;2023-04-06T07:01:56;24.10;;;14.85;;
57842;SDS011;43673;51.058;3.734;2023-04-06T07:04:22;23.83;;;14.85;;
57842;SDS011;43673;51.058;3.734;2023-04-06T07:06:48;27.40;;;15.23;;
57842;SDS011;43673;51.058;3.734;2023-04-06T07:09:14;22.45;;;13.85;;
57842;SDS011;43673;51.058;3.734;2023-04-06T07:11:40;21.08;;;12.85;;
57842;SDS011;43673;51.058;3.734;2023-04-06T07:14:05;22.67;;;13.15;;
57842;SDS011;43673;51.058;3.734;2023-04-06T07:16:34;19.58;;;13.13;;
57842;SDS011;43673;51.058;3.734;2023-04-06T07:21:35;22.42;;;11.82;;
57842;SDS011;43673;51.058;3.734;2023-04-06T07:24:01;15.70;;;10.65;;
57842;SDS011;43673;51.058;3.734;2023-04-06T07:26:28;17.02;;;10.70;;
57842;SDS011;43673;51.058;3.734;2023-04-06T07:28:54;20.02;;;10.23;;
57842;SDS011;43673;51.058;3.734;2023-04-06T07:31:20;17.23;;;10.65;;
57842;SDS011;43673;51.058;3.734;2023-04-06T07:33:46;14.52;;;10.07;;
57842;SDS011;43673;51.058;3.734;2023-04-06T07:36:15;17.58;;;9.23;;
57842;SDS011;43673;51.058;3.734;2023-04-06T07:47:14;16.42;;;10.05;;
57842;SDS011;43673;51.058;3.734;2023-04-06T07:49:44;21.30;;;10.82;;
57842;SDS011;43673;51.058;3.734;2023-04-06T07:54:45;20.25;;;12.05;;
57842;SDS011;43673;51.058;3.734;2023-04-06T07:57:11;18.30;;;11.82;;
57842;SDS011;43673;51.058;3.734;2023-04-06T07:59:37;21.17;;;12.48;;
57842;SDS011;43673;51.058;3.734;2023-04-06T08:02:03;19.45;;;12.52;;
57842;SDS011;43673;51.058;3.734;2023-04-06T08:04:29;18.92;;;11.45;;
57842;SDS011;43673;51.058;3.734;2023-04-06T08:06:55;20.05;;;12.80;;
57842;SDS011;43673;51.058;3.734;2023-04-06T08:09:20;19.15;;;11.13;;
57842;SDS011;43673;51.058;3.734;2023-04-06T08:11:46;20.00;;;11.57;;
57842;SDS011;43673;51.058;3.734;2023-04-06T08:14:13;22.23;;;12.93;;
57842;SDS011;43673;51.058;3.734;2023-04-06T08:16:40;22.27;;;13.45;;
57842;SDS011;43673;51.058;3.734;2023-04-06T08:19:06;20.92;;;12.60;;
57842;SDS011;43673;51.058;3.734;2023-04-06T08:21:34;19.83;;;13.15;;
57842;SDS011;43673;51.058;3.734;2023-04-06T08:24:05;18.50;;;12.15;;
57842;SDS011;43673;51.058;3.734;2023-04-06T08:26:31;22.00;;;12.48;;
57842;SDS011;43673;51.058;3.734;2023-04-06T08:28:57;19.42;;;11.70;;
57842;SDS011;43673;51.058;3.734;2023-04-06T08:31:23;21.77;;;12.82;;
57842;SDS011;43673;51.058;3.734;2023-04-06T08:33:49;18.95;;;12.27;;
57842;SDS011;43673;51.058;3.734;2023-04-06T08:36:14;18.92;;;12.30;;
57842;SDS011;43673;51.058;3.734;2023-04-06T08:38:41;19.85;;;13.25;;
57842;SDS011;43673;51.058;3.734;2023-04-06T08:41:10;20.67;;;12.40;;
57842;SDS011;43673;51.058;3.734;2023-04-06T08:46:17;22.73;;;14.15;;
57842;SDS011;43673;51.058;3.734;2023-04-06T08:48:43;22.48;;;13.40;;
57842;SDS011;43673;51.058;3.734;2023-04-06T08:51:10;20.02;;;12.88;;
57842;SDS011;43673;51.058;3.734;2023-04-06T08:53:37;24.55;;;13.20;;
57842;SDS011;43673;51.058;3.734;2023-04-06T08:56:03;26.48;;;14.43;;
57842;SDS011;43673;51.058;3.734;2023-04-06T08:58:35;21.02;;;13.48;;
57842;SDS011;43673;51.058;3.734;2023-04-06T09:01:07;23.80;;;14.93;;
57842;SDS011;43673;51.058;3.734;2023-04-06T09:03:37;28.35;;;15.15;;
57842;SDS011;43673;51.058;3.734;2023-04-06T09:06:10;27.67;;;15.57;;
57842;SDS011;43673;51.058;3.734;2023-04-06T09:08:40;24.02;;;14.57;;
57842;SDS011;43673;51.058;3.734;2023-04-06T09:11:07;19.15;;;13.30;;
57842;SDS011;43673;51.058;3.734;2023-04-06T09:13:46;22.40;;;13.60;;
57842;SDS011;43673;51.058;3.734;2023-04-06T09:16:14;20.25;;;12.65;;
57842;SDS011;43673;51.058;3.734;2023-04-06T09:18:41;23.17;;;13.50;;
57842;SDS011;43673;51.058;3.734;2023-04-06T09:21:07;19.77;;;13.48;;
57842;SDS011;43673;51.058;3.734;2023-04-06T09:26:44;20.17;;;12.52;;
57842;SDS011;43673;51.058;3.734;2023-04-06T09:29:25;27.90;;;13.77;;
57842;SDS011;43673;51.058;3.734;2023-04-06T09:31:51;19.42;;;12.93;;
57842;SDS011;43673;51.058;3.734;2023-04-06T09:34:21;19.63;;;12.48;;
57842;SDS011;43673;51.058;3.734;2023-04-06T09:36:48;27.45;;;13.75;;
57842;SDS011;43673;51.058;3.734;2023-04-06T09:39:14;22.02;;;13.75;;
57842;SDS011;43673;51.058;3.734;2023-04-06T09:41:40;23.70;;;13.93;;
57842;SDS011;43673;51.058;3.734;2023-04-06T09:46:42;23.52;;;13.77;;
57842;SDS011;43673;51.058;3.734;2023-04-06T09:49:15;22.92;;;14.23;;
57842;SDS011;43673;51.058;3.734;2023-04-06T09:52:17;23.63;;;14.60;;
57842;SDS011;43673;51.058;3.734;2023-04-06T09:54:36;23.65;;;14.05;;
57842;SDS011;43673;51.058;3.734;2023-04-06T09:57:11;23.10;;;14.43;;
57842;SDS011;43673;51.058;3.734;2023-04-06T09:59:52;23.92;;;13.70;;
57842;SDS011;43673;51.058;3.734;2023-04-06T10:05:49;24.80;;;14.30;;
57842;SDS011;43673;51.058;3.734;2023-04-06T10:08:28;27.63;;;16.30;;
57842;SDS011;43673;51.058;3.734;2023-04-06T10:10:55;21.75;;;15.50;;
57842;SDS011;43673;51.058;3.734;2023-04-06T10:13:21;23.00;;;14.38;;
57842;SDS011;43673;51.058;3.734;2023-04-06T10:15:52;25.48;;;15.98;;
57842;SDS011;43673;51.058;3.734;2023-04-06T10:18:25;24.92;;;14.32;;
57842;SDS011;43673;51.058;3.734;2023-04-06T10:21:14;23.38;;;15.68;;
57842;SDS011;43673;51.058;3.734;2023-04-06T10:23:58;22.38;;;15.13;;
57842;SDS011;43673;51.058;3.734;2023-04-06T10:26:26;25.33;;;16.05;;
57842;SDS011;43673;51.058;3.734;2023-04-06T10:36:42;23.45;;;15.65;;
57842;SDS011;43673;51.058;3.734;2023-04-06T10:39:08;22.45;;;14.68;;
57842;SDS011;43673;51.058;3.734;2023-04-06T10:41:41;22.02;;;13.68;;
57842;SDS011;43673;51.058;3.734;2023-04-06T10:46:55;20.67;;;14.00;;
57842;SDS011;43673;51.058;3.734;2023-04-06T10:49:22;23.65;;;14.45;;
57842;SDS011;43673;51.058;3.734;2023-04-06T10:51:53;23.00;;;15.90;;
57842;SDS011;43673;51.058;3.734;2023-04-06T10:56:50;19.60;;;13.27;;
57842;SDS011;43673;51.058;3.734;2023-04-06T10:59:22;19.95;;;12.95;;
57842;SDS011;43673;51.058;3.734;2023-04-06T11:01:50;16.88;;;12.65;;
57842;SDS011;43673;51.058;3.734;2023-04-06T11:04:17;21.00;;;13.45;;
57842;SDS011;43673;51.058;3.734;2023-04-06T11:06:46;16.63;;;11.65;;
57842;SDS011;43673;51.058;3.734;2023-04-06T11:09:25;19.33;;;13.75;;
57842;SDS011;43673;51.058;3.734;2023-04-06T11:11:52;18.38;;;12.57;;
57842;SDS011;43673;51.058;3.734;2023-04-06T11:14:18;14.85;;;11.23;;
57842;SDS011;43673;51.058;3.734;2023-04-06T11:16:45;15.70;;;11.70;;
57842;SDS011;43673;51.058;3.734;2023-04-06T11:19:15;18.58;;;12.63;;
57842;SDS011;43673;51.058;3.734;2023-04-06T11:21:41;16.38;;;12.35;;
57842;SDS011;43673;51.058;3.734;2023-04-06T11:24:12;14.75;;;10.77;;
57842;SDS011;43673;51.058;3.734;2023-04-06T11:26:43;17.10;;;10.50;;
57842;SDS011;43673;51.058;3.734;2023-04-06T11:29:20;18.30;;;11.60;;
57842;SDS011;43673;51.058;3.734;2023-04-06T11:31:52;15.02;;;10.82;;
57842;SDS011;43673;51.058;3.734;2023-04-06T11:34:23;14.60;;;10.10;;
57842;SDS011;43673;51.058;3.734;2023-04-06T11:36:59;16.35;;;10.77;;
57842;SDS011;43673;51.058;3.734;2023-04-06T11:39:31;16.02;;;10.57;;
57842;SDS011;43673;51.058;3.734;2023-04-06T11:42:00;18.88;;;10.73;;
57842;SDS011;43673;51.058;3.734;2023-04-06T11:47:01;13.20;;;10.52;;
57842;SDS011;43673;51.058;3.734;2023-04-06T11:49:36;12.50;;;10.35;;
57842;SDS011;43673;51.058;3.734;2023-04-06T11:52:13;11.77;;;10.20;;
57842;SDS011;43673;51.058;3.734;2023-04-06T11:54:52;15.75;;;9.35;;
57842;SDS011;43673;51.058;3.734;2023-04-06T11:57:21;15.25;;;11.65;;
57842;SDS011;43673;51.058;3.734;2023-04-06T11:59:50;11.57;;;9.20;;
57842;SDS011;43673;51.058;3.734;2023-04-06T12:02:22;11.80;;;9.02;;
57842;SDS011;43673;51.058;3.734;2023-04-06T12:04:53;14.27;;;9.35;;
57842;SDS011;43673;51.058;3.734;2023-04-06T12:07:20;13.98;;;9.88;;
57842;SDS011;43673;51.058;3.734;2023-04-06T12:09:45;13.57;;;10.15;;
57842;SDS011;43673;51.058;3.734;2023-04-06T12:12:11;13.82;;;9.95;;
57842;SDS011;43673;51.058;3.734;2023-04-06T12:14:37;15.98;;;11.70;;
57842;SDS011;43673;51.058;3.734;2023-04-06T12:19:38;14.57;;;11.00;;
57842;SDS011;43673;51.058;3.734;2023-04-06T12:22:05;18.10;;;12.27;;
57842;SDS011;43673;51.058;3.734;2023-04-06T12:24:31;18.05;;;12.40;;
57842;SDS011;43673;51.058;3.734;2023-04-06T12:26:57;17.20;;;12.65;;
57842;SDS011;43673;51.058;3.734;2023-04-06T12:29:24;18.70;;;13.05;;
57842;SDS011;43673;51.058;3.734;2023-04-06T12:31:55;19.83;;;13.43;;
57842;SDS011;43673;51.058;3.734;2023-04-06T12:34:21;18.63;;;12.52;;
57842;SDS011;43673;51.058;3.734;2023-04-06T12:36:47;20.17;;;13.57;;
57842;SDS011;43673;51.058;3.734;2023-04-06T12:39:15;20.60;;;14.65;;
57842;SDS011;43673;51.058;3.734;2023-04-06T12:41:41;19.95;;;13.52;;
57842;SDS011;43673;51.058;3.734;2023-04-06T12:44:08;23.00;;;13.90;;
57842;SDS011;43673;51.058;3.734;2023-04-06T12:46:34;23.33;;;14.23;;
57842;SDS011;43673;51.058;3.734;2023-04-06T12:49:02;18.15;;;14.30;;
57842;SDS011;43673;51.058;3.734;2023-04-06T12:51:37;19.75;;;14.23;;
57842;SDS011;43673;51.058;3.734;2023-04-06T12:54:03;20.02;;;14.57;;
57842;SDS011;43673;51.058;3.734;2023-04-06T12:56:42;20.52;;;15.40;;
57842;SDS011;43673;51.058;3.734;2023-04-06T12:59:14;21.33;;;15.68;;
57842;SDS011;43673;51.058;3.734;2023-04-06T13:02:00;18.20;;;14.70;;
57842;SDS011;43673;51.058;3.734;2023-04-06T13:04:29;19.48;;;14.57;;
57842;SDS011;43673;51.058;3.734;2023-04-06T13:07:10;18.90;;;14.25;;
57842;SDS011;43673;51.058;3.734;2023-04-06T13:09:36;21.27;;;15.70;;
57842;SDS011;43673;51.058;3.734;2023-04-06T13:12:02;23.00;;;15.88;;
57842;SDS011;43673;51.058;3.734;2023-04-06T13:14:28;23.80;;;15.18;;
57842;SDS011;43673;51.058;3.734;2023-04-06T13:16:56;22.20;;;16.25;;
57842;SDS011;43673;51.058;3.734;2023-04-06T13:19:22;22.08;;;14.75;;
57842;SDS011;43673;51.058;3.734;2023-04-06T13:21:49;23.67;;;15.82;;
57842;SDS011;43673;51.058;3.734;2023-04-06T13:24:15;20.30;;;15.68;;
57842;SDS011;43673;51.058;3.734;2023-04-06T13:26:41;23.60;;;16.20;;
57842;SDS011;43673;51.058;3.734;2023-04-06T13:29:07;20.25;;;14.68;;
57842;SDS011;43673;51.058;3.734;2023-04-06T13:31:36;18.52;;;13.73;;
57842;SDS011;43673;51.058;3.734;2023-04-06T13:34:02;21.75;;;14.27;;
57842;SDS011;43673;51.058;3.734;2023-04-06T13:36:27;21.65;;;15.98;;
57842;SDS011;43673;51.058;3.734;2023-04-06T13:38:53;18.88;;;13.52;;
57842;SDS011;43673;51.058;3.734;2023-04-06T13:41:21;19.85;;;15.00;;
57842;SDS011;43673;51.058;3.734;2023-04-06T13:43:48;23.30;;;15.35;;
57842;SDS011;43673;51.058;3.734;2023-04-06T13:46:14;19.15;;;14.55;;
57842;SDS011;43673;51.058;3.734;2023-04-06T13:48:41;21.00;;;15.75;;
57842;SDS011;43673;51.058;3.734;2023-04-06T13:51:11;19.85;;;15.15;;
57842;SDS011;43673;51.058;3.734;2023-04-06T13:53:38;23.75;;;17.55;;
57842;SDS011;43673;51.058;3.734;2023-04-06T13:56:04;19.98;;;15.77;;
57842;SDS011;43673;51.058;3.734;2023-04-06T13:58:31;30.88;;;19.70;;
57842;SDS011;43673;51.058;3.734;2023-04-06T14:01:07;23.88;;;17.48;;
57842;SDS011;43673;51.058;3.734;2023-04-06T14:03:34;20.90;;;16.23;;
57842;SDS011;43673;51.058;3.734;2023-04-06T14:06:01;23.27;;;16.20;;
57842;SDS011;43673;51.058;3.734;2023-04-06T14:08:34;22.23;;;17.38;;
57842;SDS011;43673;51.058;3.734;2023-04-06T14:11:00;20.17;;;15.68;;
57842;SDS011;43673;51.058;3.734;2023-04-06T14:13:26;22.92;;;15.55;;
57842;SDS011;43673;51.058;3.734;2023-04-06T14:15:53;19.23;;;14.90;;
57842;SDS011;43673;51.058;3.734;2023-04-06T14:18:19;21.98;;;14.68;;
57842;SDS011;43673;51.058;3.734;2023-04-06T14:20:53;24.65;;;16.25;;
57842;SDS011;43673;51.058;3.734;2023-04-06T14:23:20;22.90;;;15.85;;
57842;SDS011;43673;51.058;3.734;2023-04-06T14:25:46;21.48;;;15.85;;
57842;SDS011;43673;51.058;3.734;2023-04-06T14:28:11;22.40;;;17.33;;
57842;SDS011;43673;51.058;3.734;2023-04-06T14:30:37;22.35;;;14.98;;
57842;SDS011;43673;51.058;3.734;2023-04-06T14:33:03;26.70;;;15.68;;
57842;SDS011;43673;51.058;3.734;2023-04-06T14:35:29;22.20;;;15.32;;
57842;SDS011;43673;51.058;3.734;2023-04-06T14:37:57;22.25;;;15.02;;
57842;SDS011;43673;51.058;3.734;2023-04-06T14:40:23;24.98;;;14.57;;
57842;SDS011;43673;51.058;3.734;2023-04-06T14:42:50;22.27;;;14.88;;
57842;SDS011;43673;51.058;3.734;2023-04-06T14:45:16;27.40;;;13.90;;
57842;SDS011;43673;51.058;3.734;2023-04-06T14:47:44;27.60;;;14.55;;
57842;SDS011;43673;51.058;3.734;2023-04-06T14:50:10;32.35;;;17.55;;
57842;SDS011;43673;51.058;3.734;2023-04-06T14:52:36;26.55;;;15.10;;
57842;SDS011;43673;51.058;3.734;2023-04-06T14:55:02;21.98;;;13.23;;
57842;SDS011;43673;51.058;3.734;2023-04-06T14:57:31;25.85;;;14.40;;
57842;SDS011;43673;51.058;3.734;2023-04-06T14:59:57;30.63;;;14.57;;
57842;SDS011;43673;51.058;3.734;2023-04-06T15:02:23;21.58;;;16.05;;
57842;SDS011;43673;51.058;3.734;2023-04-06T15:04:49;26.92;;;14.45;;
57842;SDS011;43673;51.058;3.734;2023-04-06T15:07:15;29.90;;;15.77;;
57842;SDS011;43673;51.058;3.734;2023-04-06T15:09:41;26.13;;;14.30;;
57842;SDS011;43673;51.058;3.734;2023-04-06T15:12:07;29.23;;;15.93;;